createdAt,value
2023-02-18T00:01:43.079Z,27.95
2023-02-18T00:04:11.153Z,32.60
2023-02-18T00:06:39.822Z,30.67
2023-02-18T00:09:09.302Z,32.10
2023-02-18T00:11:38.418Z,33.35
2023-02-18T00:14:11.946Z,28.15
2023-02-18T00:19:13.070Z,28.65
2023-02-18T00:21:41.789Z,27.95
2023-02-18T00:24:11.976Z,30.63
2023-02-18T00:26:39.899Z,29.73
2023-02-18T00:29:08.235Z,28.70
2023-02-18T00:31:39.299Z,25.33
2023-02-18T00:34:08.233Z,28.10
2023-02-18T00:36:37.125Z,29.10
2023-02-18T00:39:09.377Z,28.25
2023-02-18T00:41:37.868Z,28.55
2023-02-18T00:44:06.961Z,26.08
2023-02-18T00:46:35.946Z,28.30
2023-02-18T00:49:05.338Z,31.08
2023-02-18T00:51:33.750Z,25.25
2023-02-18T00:54:02.069Z,28.67
2023-02-18T00:56:30.497Z,27.35
2023-02-18T00:58:58.826Z,26.50
2023-02-18T01:01:28.100Z,27.13
2023-02-18T01:03:56.829Z,26.92
2023-02-18T01:06:24.832Z,27.38
2023-02-18T01:08:52.966Z,27.95
2023-02-18T01:11:20.933Z,33.50
2023-02-18T01:13:49.012Z,35.22
2023-02-18T01:16:17.381Z,38.53
2023-02-18T01:18:48.167Z,25.05
2023-02-18T01:21:17.266Z,27.92
2023-02-18T01:23:46.136Z,35.28
2023-02-18T01:26:17.157Z,32.72
2023-02-18T01:28:45.545Z,33.47
2023-02-18T01:31:15.198Z,34.08
2023-02-18T01:33:44.015Z,30.40
2023-02-18T01:36:12.761Z,32.38
2023-02-18T01:38:41.282Z,32.10
2023-02-18T01:41:10.764Z,36.03
2023-02-18T01:43:40.140Z,34.15
2023-02-18T01:46:15.127Z,36.97
2023-02-18T01:48:58.687Z,35.05
2023-02-18T01:51:35.344Z,35.42
2023-02-18T01:54:15.255Z,35.45
2023-02-18T01:56:55.654Z,37.35
2023-02-18T01:59:28.148Z,38.13
2023-02-18T02:01:57.689Z,36.85
2023-02-18T02:04:27.168Z,37.08
2023-02-18T02:06:55.218Z,32.28
2023-02-18T02:09:27.311Z,35.50
2023-02-18T02:12:18.095Z,35.88
2023-02-18T02:15:06.479Z,34.67
2023-02-18T02:17:56.136Z,28.52
2023-02-18T02:20:51.829Z,32.58
2023-02-18T02:23:48.948Z,31.95
2023-02-18T02:26:19.959Z,33.47
2023-02-18T02:29:13.283Z,35.17
2023-02-18T02:31:51.705Z,35.03
2023-02-18T02:34:28.778Z,34.85
2023-02-18T02:37:15.081Z,32.35
2023-02-18T02:40:25.224Z,37.30
2023-02-18T02:43:08.613Z,38.65
2023-02-18T02:45:59.315Z,39.90
2023-02-18T02:48:38.080Z,39.22
2023-02-18T02:51:18.795Z,34.17
2023-02-18T02:53:46.892Z,33.88
2023-02-18T02:56:25.426Z,31.50
2023-02-18T02:59:05.331Z,38.10
2023-02-18T03:04:29.431Z,30.85
2023-02-18T03:07:07.315Z,31.30
2023-02-18T03:09:46.641Z,28.05
2023-02-18T03:12:36.441Z,28.85
2023-02-18T03:15:35.314Z,26.15
2023-02-18T03:18:41.400Z,25.27
2023-02-18T03:21:20.143Z,26.73
2023-02-18T03:23:58.614Z,28.98
2023-02-18T03:26:31.110Z,31.20
2023-02-18T03:29:04.854Z,29.80
2023-02-18T03:31:36.264Z,33.90
2023-02-18T03:34:10.072Z,31.65
2023-02-18T03:36:39.809Z,33.10
2023-02-18T03:39:12.682Z,33.85
2023-02-18T03:41:41.322Z,24.83
2023-02-18T03:44:10.816Z,32.83
2023-02-18T03:46:43.255Z,35.63
2023-02-18T03:49:14.388Z,33.50
2023-02-18T03:51:43.087Z,36.72
2023-02-18T03:54:11.453Z,32.80
2023-02-18T03:56:42.685Z,33.28
2023-02-18T03:59:12.074Z,34.10
2023-02-18T04:01:40.964Z,33.83
2023-02-18T04:04:09.511Z,32.45
2023-02-18T04:06:37.631Z,31.45
2023-02-18T04:09:09.344Z,36.72
2023-02-18T04:11:39.733Z,36.42
2023-02-18T04:14:08.873Z,37.28
2023-02-18T04:16:37.168Z,29.00
2023-02-18T04:19:05.378Z,33.65
2023-02-18T04:21:34.505Z,32.10
2023-02-18T04:24:03.284Z,32.35
2023-02-18T04:26:31.257Z,34.45
2023-02-18T04:28:59.261Z,33.35
2023-02-18T04:31:28.429Z,30.20
2023-02-18T04:33:56.471Z,30.23
2023-02-18T04:36:24.799Z,33.95
2023-02-18T04:38:52.968Z,31.65
2023-02-18T04:41:21.341Z,30.50
2023-02-18T04:43:49.195Z,32.58
2023-02-18T04:46:17.964Z,31.73
2023-02-18T04:48:46.546Z,34.20
2023-02-18T04:51:14.410Z,32.25
2023-02-18T04:53:42.413Z,35.08
2023-02-18T04:56:10.700Z,31.80
2023-02-18T04:58:38.804Z,34.72
2023-02-18T05:01:07.550Z,34.72
2023-02-18T05:03:36.389Z,33.55
2023-02-18T05:06:04.773Z,34.30
2023-02-18T05:08:33.356Z,37.20
2023-02-18T05:11:06.325Z,35.97
2023-02-18T05:13:35.468Z,35.20
2023-02-18T05:16:03.752Z,35.70
2023-02-18T05:18:31.619Z,36.15
2023-02-18T05:20:59.638Z,37.08
2023-02-18T05:23:27.722Z,36.28
2023-02-18T05:25:56.249Z,37.05
2023-02-18T05:28:24.664Z,35.47
2023-02-18T05:30:52.990Z,32.55
2023-02-18T05:33:21.720Z,34.45
2023-02-18T05:35:50.122Z,30.50
2023-02-18T05:38:18.194Z,24.90
2023-02-18T05:40:46.370Z,28.48
2023-02-18T05:43:14.788Z,30.30
2023-02-18T05:45:43.541Z,25.80
2023-02-18T05:48:11.862Z,29.50
2023-02-18T05:50:40.412Z,25.33
2023-02-18T05:53:08.881Z,31.77
2023-02-18T05:55:39.306Z,33.22
2023-02-18T05:58:07.516Z,35.13
2023-02-18T06:00:36.028Z,36.40
2023-02-18T06:03:04.510Z,31.38
2023-02-18T06:05:33.052Z,34.95
2023-02-18T06:08:01.018Z,33.90
2023-02-18T06:10:29.465Z,31.60
2023-02-18T06:12:58.148Z,31.85
2023-02-18T06:15:26.251Z,31.00
2023-02-18T06:17:54.342Z,29.42
2023-02-18T06:20:22.289Z,31.05
2023-02-18T06:22:50.497Z,28.08
2023-02-18T06:25:25.275Z,30.90
2023-02-18T06:27:53.876Z,28.30
2023-02-18T06:30:26.106Z,28.85
2023-02-18T06:32:54.900Z,26.73
2023-02-18T06:35:23.060Z,21.05
2023-02-18T06:37:51.641Z,28.38
2023-02-18T06:40:19.690Z,27.05
2023-02-18T06:42:47.603Z,27.73
2023-02-18T06:45:16.435Z,30.73
2023-02-18T06:47:44.564Z,32.67
2023-02-18T06:50:12.493Z,33.70
2023-02-18T06:52:44.730Z,31.60
2023-02-18T06:55:16.467Z,31.27
2023-02-18T06:57:44.490Z,33.83
2023-02-18T07:00:12.878Z,32.08
2023-02-18T07:02:40.794Z,35.83
2023-02-18T07:05:09.424Z,31.52
2023-02-18T07:07:37.921Z,30.25
2023-02-18T07:10:06.931Z,30.48
2023-02-18T07:12:35.003Z,28.50
2023-02-18T07:15:03.872Z,29.90
2023-02-18T07:17:32.326Z,27.63
2023-02-18T07:20:01.047Z,24.77
2023-02-18T07:22:29.390Z,23.58
2023-02-18T07:24:57.512Z,26.65
2023-02-18T07:27:26.297Z,26.10
2023-02-18T07:29:54.722Z,27.92
2023-02-18T07:32:22.710Z,28.08
2023-02-18T07:34:53.215Z,28.27
2023-02-18T07:37:22.174Z,26.88
2023-02-18T07:39:50.812Z,26.98
2023-02-18T07:42:18.759Z,30.52
2023-02-18T07:44:49.779Z,29.55
2023-02-18T07:47:20.098Z,30.27
2023-02-18T07:49:48.568Z,32.85
2023-02-18T07:52:17.051Z,30.58
2023-02-18T07:54:45.693Z,22.83
2023-02-18T07:57:14.472Z,27.05
2023-02-18T07:59:42.753Z,26.25
2023-02-18T08:02:25.199Z,24.50
2023-02-18T08:04:54.140Z,22.27
2023-02-18T08:07:23.793Z,23.48
2023-02-18T08:09:52.346Z,23.63
2023-02-18T08:12:20.502Z,21.73
2023-02-18T08:14:48.522Z,22.83
2023-02-18T08:17:18.236Z,24.08
2023-02-18T08:19:46.951Z,22.48
2023-02-18T08:22:15.364Z,22.70
2023-02-18T08:24:43.807Z,22.50
2023-02-18T08:27:13.496Z,22.95
2023-02-18T08:29:41.725Z,23.10
2023-02-18T08:32:10.200Z,23.63
2023-02-18T08:34:38.769Z,23.35
2023-02-18T08:37:07.358Z,24.08
2023-02-18T08:39:39.207Z,21.20
2023-02-18T08:42:07.832Z,21.15
2023-02-18T08:44:36.278Z,23.00
2023-02-18T08:47:05.313Z,21.25
2023-02-18T08:49:54.378Z,21.58
2023-02-18T08:52:22.683Z,23.23
2023-02-18T08:54:50.809Z,24.40
2023-02-18T08:57:20.159Z,22.50
2023-02-18T08:59:48.514Z,23.08
2023-02-18T09:02:17.160Z,22.27
2023-02-18T09:04:54.960Z,21.95
2023-02-18T09:07:24.549Z,24.00
2023-02-18T09:09:52.740Z,23.02
2023-02-18T09:12:20.852Z,22.58
2023-02-18T09:14:49.334Z,21.85
2023-02-18T09:17:18.373Z,22.05
2023-02-18T09:19:46.925Z,20.65
2023-02-18T09:22:15.950Z,20.60
2023-02-18T09:24:44.040Z,18.88
2023-02-18T09:27:12.446Z,20.80
2023-02-18T09:29:41.308Z,20.35
2023-02-18T09:32:14.514Z,19.52
2023-02-18T09:34:48.578Z,20.27
2023-02-18T09:37:22.664Z,20.08
2023-02-18T09:39:51.065Z,22.10
2023-02-18T09:42:25.114Z,21.23
2023-02-18T09:44:58.475Z,18.88
2023-02-18T09:47:42.937Z,18.13
2023-02-18T09:50:26.184Z,18.00
2023-02-18T09:52:55.300Z,19.67
2023-02-18T09:55:53.644Z,18.13
2023-02-18T09:58:30.166Z,19.65
2023-02-18T10:01:07.644Z,17.77
2023-02-18T10:03:35.820Z,17.92
2023-02-18T10:06:22.509Z,18.05
2023-02-18T10:08:54.050Z,17.33
2023-02-18T10:11:40.728Z,18.08
2023-02-18T10:14:14.199Z,19.05
2023-02-18T10:16:45.541Z,17.45
2023-02-18T10:19:30.512Z,16.63
2023-02-18T10:22:01.129Z,16.70
2023-02-18T10:24:41.443Z,16.60
2023-02-18T10:27:33.766Z,17.83
2023-02-18T10:30:33.433Z,18.00
2023-02-18T10:33:14.055Z,18.65
2023-02-18T10:35:54.154Z,17.95
2023-02-18T10:38:41.433Z,18.98
2023-02-18T10:41:24.355Z,21.23
2023-02-18T10:44:45.811Z,19.77
2023-02-18T10:47:39.672Z,19.60
2023-02-18T10:50:36.499Z,17.52
2023-02-18T10:53:35.428Z,18.98
2023-02-18T10:56:06.628Z,22.83
2023-02-18T10:58:45.542Z,19.50
2023-02-18T11:01:16.739Z,19.83
2023-02-18T11:04:05.496Z,19.27
2023-02-18T11:06:42.569Z,18.38
2023-02-18T11:09:26.148Z,19.45
2023-02-18T11:12:09.216Z,32.08
2023-02-18T11:14:43.462Z,22.52
2023-02-18T11:17:17.711Z,20.92
2023-02-18T11:19:57.769Z,20.67
2023-02-18T11:22:41.618Z,20.45
2023-02-18T11:25:23.135Z,18.90
2023-02-18T11:27:59.551Z,19.95
2023-02-18T11:30:48.125Z,20.10
2023-02-18T11:33:26.097Z,20.52
2023-02-18T11:35:57.387Z,18.40
2023-02-18T11:38:35.633Z,18.83
2023-02-18T11:41:16.713Z,18.63
2023-02-18T11:43:52.512Z,18.67
2023-02-18T11:46:24.449Z,18.77
2023-02-18T11:48:52.622Z,18.00
2023-02-18T11:51:38.480Z,16.08
2023-02-18T11:54:25.141Z,18.95
2023-02-18T11:57:06.449Z,16.85
2023-02-18T11:59:38.485Z,13.88
2023-02-18T12:02:39.240Z,14.90
2023-02-18T12:05:23.430Z,13.57
2023-02-18T12:08:10.022Z,15.15
2023-02-18T12:10:47.579Z,17.90
2023-02-18T12:13:35.151Z,12.80
2023-02-18T12:16:21.897Z,11.45
2023-02-18T12:19:41.200Z,12.52
2023-02-18T12:22:09.846Z,11.82
2023-02-18T12:25:14.895Z,12.93
2023-02-18T12:28:00.760Z,11.80
2023-02-18T12:30:47.003Z,12.45
2023-02-18T12:33:48.752Z,13.80
2023-02-18T12:36:28.464Z,16.30
2023-02-18T12:39:38.158Z,19.42
2023-02-18T12:42:31.159Z,14.13
2023-02-18T12:45:02.022Z,12.77
2023-02-18T12:47:37.921Z,13.07
2023-02-18T12:50:17.475Z,12.90
2023-02-18T12:52:54.355Z,12.73
2023-02-18T12:55:28.666Z,12.65
2023-02-18T12:58:15.458Z,12.80
2023-02-18T13:00:52.586Z,13.10
2023-02-18T13:03:32.298Z,13.50
2023-02-18T13:06:09.817Z,12.85
2023-02-18T13:09:37.761Z,12.82
2023-02-18T13:12:44.255Z,13.00
2023-02-18T13:15:37.791Z,12.30
2023-02-18T13:18:12.153Z,13.20
2023-02-18T13:20:45.312Z,14.88
2023-02-18T13:23:26.599Z,13.05
2023-02-18T13:26:01.319Z,12.43
2023-02-18T13:28:59.997Z,13.82
2023-02-18T13:31:55.380Z,12.38
2023-02-18T13:34:29.655Z,13.23
2023-02-18T13:37:04.637Z,12.10
2023-02-18T13:39:33.327Z,12.50
2023-02-18T13:42:17.857Z,12.77
2023-02-18T13:44:49.345Z,12.45
2023-02-18T13:47:39.140Z,10.90
2023-02-18T13:50:40.881Z,11.90
2023-02-18T13:53:08.795Z,11.85
2023-02-18T13:56:29.390Z,12.48
2023-02-18T13:59:02.732Z,12.13
2023-02-18T14:04:36.522Z,10.73
2023-02-18T14:07:19.251Z,12.32
2023-02-18T14:09:47.303Z,11.17
2023-02-18T14:12:18.126Z,11.23
2023-02-18T14:14:46.542Z,11.38
2023-02-18T14:17:20.511Z,12.43
2023-02-18T14:20:01.255Z,11.43
2023-02-18T14:22:49.655Z,11.27
2023-02-18T14:25:37.267Z,11.00
2023-02-18T14:28:33.948Z,11.95
2023-02-18T14:31:30.585Z,11.82
2023-02-18T14:34:09.489Z,12.95
2023-02-18T14:36:45.789Z,12.18
2023-02-18T14:39:41.111Z,11.23
2023-02-18T14:42:38.809Z,11.60
2023-02-18T14:45:23.924Z,13.15
2023-02-18T14:48:45.076Z,10.05
2023-02-18T14:51:18.515Z,12.15
2023-02-18T14:53:47.976Z,10.60
2023-02-18T14:56:20.136Z,10.57
2023-02-18T14:58:56.977Z,10.65
2023-02-18T15:01:37.036Z,9.77
2023-02-18T15:04:05.426Z,11.40
2023-02-18T15:06:38.093Z,11.40
2023-02-18T15:09:19.470Z,10.20
2023-02-18T15:12:06.066Z,10.40
2023-02-18T15:14:41.588Z,11.57
2023-02-18T15:17:24.689Z,16.23
2023-02-18T15:20:06.767Z,12.05
2023-02-18T15:22:36.327Z,12.05
2023-02-18T15:25:04.589Z,10.35
2023-02-18T15:27:38.537Z,12.93
2023-02-18T15:30:25.153Z,11.50
2023-02-18T15:32:59.387Z,10.23
2023-02-18T15:35:31.028Z,11.32
2023-02-18T15:38:01.651Z,11.52
2023-02-18T15:40:37.137Z,10.43
2023-02-18T15:43:06.713Z,9.45
2023-02-18T15:45:39.294Z,10.02
2023-02-18T15:48:07.718Z,9.32
2023-02-18T15:50:38.007Z,9.63
2023-02-18T15:53:10.411Z,8.82
2023-02-18T15:55:40.812Z,11.60
2023-02-18T15:58:12.918Z,10.60
2023-02-18T16:00:47.361Z,10.15
2023-02-18T16:03:22.848Z,9.85
2023-02-18T16:06:07.412Z,9.23
2023-02-18T16:08:35.906Z,8.70
2023-02-18T16:11:11.887Z,8.40
2023-02-18T16:13:48.306Z,8.18
2023-02-18T16:16:30.375Z,9.00
2023-02-18T16:18:58.445Z,8.57
2023-02-18T16:21:38.918Z,9.50
2023-02-18T16:24:27.022Z,9.65
2023-02-18T16:26:58.504Z,10.00
2023-02-18T16:29:34.141Z,9.85
2023-02-18T16:32:02.651Z,9.98
2023-02-18T16:34:30.856Z,11.25
2023-02-18T16:37:18.301Z,10.73
2023-02-18T16:39:46.397Z,11.88
2023-02-18T16:42:15.200Z,12.27
2023-02-18T16:44:43.647Z,12.93
2023-02-18T16:47:16.750Z,13.35
2023-02-18T16:49:50.538Z,14.07
2023-02-18T16:52:19.574Z,13.07
2023-02-18T16:54:50.361Z,13.68
2023-02-18T16:57:18.759Z,13.80
2023-02-18T16:59:47.098Z,14.43
2023-02-18T17:02:20.434Z,15.10
2023-02-18T17:10:56.861Z,19.30
2023-02-18T17:13:28.401Z,18.17
2023-02-18T17:15:59.219Z,18.58
2023-02-18T17:18:27.724Z,19.75
2023-02-18T17:20:57.228Z,30.23
2023-02-18T17:23:25.212Z,24.58
2023-02-18T17:25:53.726Z,31.83
2023-02-18T17:28:47.394Z,29.77
2023-02-18T17:31:47.537Z,20.02
2023-02-18T17:34:41.260Z,21.05
2023-02-18T17:37:13.984Z,23.33
2023-02-18T17:39:42.214Z,21.55
2023-02-18T17:42:13.084Z,19.35
2023-02-18T17:44:41.602Z,18.65
2023-02-18T17:47:09.622Z,20.70
2023-02-18T17:49:37.556Z,21.20
2023-02-18T17:52:05.788Z,19.83
2023-02-18T17:54:33.775Z,26.73
2023-02-18T17:57:01.715Z,23.35
2023-02-18T17:59:30.572Z,19.60
2023-02-18T18:01:58.683Z,19.42
2023-02-18T18:04:26.918Z,20.17
2023-02-18T18:06:55.659Z,20.52
2023-02-18T18:09:23.675Z,20.15
2023-02-18T18:11:51.669Z,18.92
2023-02-18T18:14:19.622Z,20.80
2023-02-18T18:16:47.665Z,21.15
2023-02-18T18:19:15.749Z,17.40
2023-02-18T18:21:43.659Z,18.17
2023-02-18T18:24:12.803Z,17.88
2023-02-18T18:26:40.686Z,18.63
2023-02-18T18:29:08.608Z,20.33
2023-02-18T18:31:37.808Z,20.70
2023-02-18T18:34:06.187Z,31.70
2023-02-18T18:36:34.312Z,68.60
2023-02-18T18:39:02.252Z,21.85
2023-02-18T18:41:30.289Z,19.52
2023-02-18T18:43:58.250Z,20.80
2023-02-18T18:46:26.526Z,38.50
2023-02-18T18:48:54.633Z,67.97
2023-02-18T18:51:30.995Z,57.22
2023-02-18T18:53:59.624Z,57.00
2023-02-18T18:56:27.821Z,54.97
2023-02-18T18:58:55.971Z,53.72
2023-02-18T19:01:27.588Z,50.75
2023-02-18T19:03:56.055Z,50.13
2023-02-18T19:06:24.657Z,54.97
2023-02-18T19:08:52.523Z,56.97
2023-02-18T19:11:20.410Z,54.22
2023-02-18T19:13:48.833Z,73.18
2023-02-18T19:16:19.802Z,84.40
2023-02-18T19:18:48.755Z,82.55
2023-02-18T19:21:17.183Z,85.05
2023-02-18T19:23:45.249Z,90.05
2023-02-18T19:26:15.553Z,71.82
2023-02-18T19:28:44.892Z,82.00
2023-02-18T19:31:13.500Z,68.93
2023-02-18T19:33:43.251Z,70.13
2023-02-18T19:36:36.041Z,68.28
2023-02-18T19:39:04.505Z,61.22
2023-02-18T19:41:32.509Z,65.32
2023-02-18T19:44:00.520Z,69.90
2023-02-18T19:46:29.083Z,65.80
2023-02-18T19:48:57.530Z,63.17
2023-02-18T19:51:26.359Z,58.53
2023-02-18T19:53:54.812Z,62.33
2023-02-18T19:56:24.615Z,59.53
2023-02-18T19:58:56.692Z,60.83
2023-02-18T20:01:24.736Z,64.85
2023-02-18T20:03:53.846Z,86.72
2023-02-18T20:06:22.291Z,112.60
2023-02-18T20:08:50.683Z,76.35
2023-02-18T20:11:18.655Z,68.68
2023-02-18T20:13:48.069Z,73.63
2023-02-18T20:16:16.356Z,97.50
2023-02-18T20:18:44.855Z,92.05
2023-02-18T20:21:13.030Z,69.57
2023-02-18T20:23:41.507Z,79.97
2023-02-18T20:26:10.962Z,76.13
2023-02-18T20:28:39.025Z,80.95
2023-02-18T20:31:13.553Z,78.32
2023-02-18T20:33:42.618Z,81.40
2023-02-18T20:36:12.831Z,93.40
2023-02-18T20:38:40.886Z,87.28
2023-02-18T20:41:12.045Z,81.53
2023-02-18T20:43:40.878Z,70.90
2023-02-18T20:46:12.290Z,68.32
2023-02-18T20:48:40.802Z,62.70
2023-02-18T20:51:11.189Z,65.20
2023-02-18T20:53:40.918Z,59.35
2023-02-18T20:56:09.716Z,51.88
2023-02-18T20:58:38.033Z,49.70
2023-02-18T21:01:11.407Z,45.08
2023-02-18T21:03:40.411Z,41.50
2023-02-18T21:06:12.183Z,41.63
2023-02-18T21:08:40.903Z,38.88
2023-02-18T21:11:12.895Z,41.90
2023-02-18T21:13:40.987Z,38.65
2023-02-18T21:16:09.873Z,42.00
2023-02-18T21:18:37.859Z,40.58
2023-02-18T21:21:07.937Z,42.80
2023-02-18T21:23:36.910Z,43.50
2023-02-18T21:26:08.882Z,46.15
2023-02-18T21:28:37.693Z,44.58
2023-02-18T21:31:14.767Z,40.03
2023-02-18T21:33:42.793Z,33.58
2023-02-18T21:36:14.011Z,34.40
2023-02-18T21:38:44.638Z,38.13
2023-02-18T21:41:13.192Z,35.88
2023-02-18T21:43:44.212Z,37.65
2023-02-18T21:46:18.196Z,39.50
2023-02-18T21:49:05.177Z,38.80
2023-02-18T21:51:57.831Z,43.50
2023-02-18T21:54:33.802Z,36.45
2023-02-18T21:57:04.040Z,37.92
2023-02-18T21:59:34.811Z,38.28
2023-02-18T22:02:04.700Z,36.60
2023-02-18T22:04:34.470Z,35.55
2023-02-18T22:07:03.621Z,36.72
2023-02-18T22:09:31.592Z,40.50
2023-02-18T22:11:59.796Z,38.85
2023-02-18T22:14:27.776Z,39.45
2023-02-18T22:16:56.182Z,41.22
2023-02-18T22:19:24.436Z,40.50
2023-02-18T22:21:52.585Z,35.22
2023-02-18T22:24:21.263Z,35.63
2023-02-18T22:26:50.491Z,37.83
2023-02-18T22:29:21.059Z,41.35
2023-02-18T22:31:50.122Z,42.45
2023-02-18T22:34:18.162Z,54.58
2023-02-18T22:36:46.720Z,40.00
2023-02-18T22:39:15.675Z,34.03
2023-02-18T22:41:43.711Z,36.60
2023-02-18T22:44:39.461Z,38.67
2023-02-18T22:47:07.516Z,38.33
2023-02-18T22:49:35.427Z,39.88
2023-02-18T22:52:03.794Z,37.20
2023-02-18T22:54:31.798Z,39.90
2023-02-18T22:56:59.808Z,34.70
2023-02-18T22:59:27.924Z,35.42
2023-02-18T23:01:55.799Z,31.20
2023-02-18T23:04:23.978Z,36.35
2023-02-18T23:06:52.147Z,34.17
2023-02-18T23:09:23.130Z,32.20
2023-02-18T23:11:53.105Z,32.22
2023-02-18T23:14:21.918Z,33.17
2023-02-18T23:17:13.205Z,29.52
2023-02-18T23:19:54.121Z,31.10
2023-02-18T23:22:28.711Z,34.78
2023-02-18T23:24:57.312Z,30.13
2023-02-18T23:27:26.239Z,35.92
2023-02-18T23:29:55.199Z,31.85
2023-02-18T23:32:24.250Z,27.48
2023-02-18T23:34:52.777Z,31.67
2023-02-18T23:37:44.197Z,32.95
2023-02-18T23:40:14.104Z,31.00
2023-02-18T23:42:42.011Z,30.00
2023-02-18T23:45:10.147Z,28.25
2023-02-18T23:47:38.622Z,29.77
2023-02-18T23:50:07.029Z,29.92
2023-02-18T23:52:34.941Z,28.08
2023-02-18T23:55:03.019Z,29.15
2023-02-18T23:57:33.937Z,28.33
